Weather at Šoštanj Airfield

Public forecast

Using degrees Celsius for public forecast. Weather courtesy of forecast.io.

Closest aviation weather report (METAR) to Šoštanj Airfield

Closest report is Ljubljana Jože Pučnik Airport, 26.5 nm (49.1 km) WSW.

2024/05/22 21:30 (retrieved 14 minutes ago)

LJLJ 222130Z 29004KT 240V320 CAVOK 12/11 Q1015 NOSIG

Closest aviation forecast (TAF) to Šoštanj Airfield

Closest forecast is Ljubljana Jože Pučnik Airport, 26.5 nm (49.1 km) WSW.

2024/05/22 18:06 (retrieved 4 hours ago)

TAF LJLJ 221700Z 2218/2318 VRB02KT 9999 FEW040 PROB30 TEMPO 2218/2221 SHRA FEW035TCU PROB30 TEMPO 2302/2306 0500 FG VV002 TEMPO 2309/2318 SHRA FEW035TCU SCT050 PROB30 TEMPO 2310/2318 5000 TSRA FEW035CB BKN050